Time;durP1;ratioP1;P1;durP2;ratioP2;P2;SDS_P1;SDS_P2;PMS_P1;PMS_P2;Temp;Humidity;BMP_temperature;BMP_pressure;BME280_temperature;BME280_humidity;BME280_pressure;Samples;Min_cycle;Max_cycle;Signal;HPM_P1;HPM_P2
2021/12/14 00:01:34;;;;;;;22.60;16.25;;;;;;;8.32;100.00;102441.13;10033890;29;20079;-71
2021/12/14 00:06:31;;;;;;;23.17;16.40;;;;;;;8.35;100.00;102434.31;10018880;28;20050;-66
2021/12/14 00:16:34;;;;;;;22.88;15.32;;;;;;;8.34;100.00;102424.50;10027793;29;20043;-68
2021/12/14 00:21:31;;;;;;;31.73;16.98;;;;;;;8.37;100.00;102423.97;10021383;29;20062;-70
2021/12/14 00:26:28;;;;;;;23.05;15.05;;;;;;;8.27;100.00;102411.09;10034581;29;20080;-69
2021/12/14 00:31:25;;;;;;;24.40;15.43;;;;;;;8.28;100.00;102407.28;10021869;28;20048;-69
2021/12/14 00:36:23;;;;;;;25.13;15.70;;;;;;;8.30;100.00;102401.59;10025530;29;20511;-68
2021/12/14 00:41:22;;;;;;;22.58;15.68;;;;;;;8.28;100.00;102396.38;10024743;29;20636;-71
2021/12/14 00:46:20;;;;;;;25.45;16.08;;;;;;;8.33;100.00;102392.88;10024079;28;20111;-69
2021/12/14 00:51:21;;;;;;;23.13;16.15;;;;;;;8.32;100.00;102397.50;10022859;28;20106;-69
2021/12/14 00:56:17;;;;;;;22.33;15.88;;;;;;;8.26;100.00;102403.19;10026338;28;20153;-66
2021/12/14 01:01:19;;;;;;;22.63;15.63;;;;;;;8.21;100.00;102412.97;10027428;28;20065;-67
2021/12/14 01:06:17;;;;;;;21.00;14.63;;;;;;;8.21;100.00;102412.13;10021869;29;20040;-68
2021/12/14 01:11:19;;;;;;;20.70;14.45;;;;;;;8.22;100.00;102425.50;10026291;29;20072;-69
2021/12/14 01:16:32;;;;;;;26.55;15.07;;;;;;;8.19;100.00;102436.94;10018135;29;20055;-69
2021/12/14 01:26:34;;;;;;;24.10;15.80;;;;;;;8.17;100.00;102433.66;10024455;29;20131;-72
2021/12/14 01:31:37;;;;;;;23.38;15.95;;;;;;;8.23;100.00;102423.59;10022195;29;20135;-72
2021/12/14 01:36:43;;;;;;;24.08;16.48;;;;;;;8.26;100.00;102416.81;10016089;28;20698;-69
2021/12/14 01:41:41;;;;;;;23.27;15.70;;;;;;;8.28;100.00;102411.91;10026860;28;20463;-69
2021/12/14 01:46:44;;;;;;;27.45;16.63;;;;;;;8.26;100.00;102409.44;10027459;28;20082;-68
2021/12/14 01:51:45;;;;;;;22.63;15.70;;;;;;;8.29;100.00;102402.69;10019718;28;20537;-71
2021/12/14 01:56:42;;;;;;;20.50;14.93;;;;;;;8.21;100.00;102402.09;10020149;29;20135;-71
2021/12/14 02:01:53;;;;;;;23.40;15.65;;;;;;;8.27;100.00;102393.94;10018633;29;20131;-71
2021/12/14 02:07:00;;;;;;;24.17;16.27;;;;;;;8.21;100.00;102380.28;10016954;28;20051;-71
2021/12/14 02:12:00;;;;;;;23.25;16.60;;;;;;;8.23;100.00;102356.28;10018756;28;20102;-69
2021/12/14 02:17:01;;;;;;;24.02;16.67;;;;;;;8.22;100.00;102342.94;10011419;29;20044;-69
2021/12/14 02:21:59;;;;;;;23.33;16.23;;;;;;;8.16;100.00;102343.97;10011418;29;20211;-68
2021/12/14 02:26:57;;;;;;;27.23;18.17;;;;;;;8.14;100.00;102341.50;10015594;29;20071;-68
2021/12/14 02:32:01;;;;;;;24.00;17.42;;;;;;;8.14;100.00;102327.88;10015148;29;20130;-68
2021/12/14 02:36:58;;;;;;;24.92;17.90;;;;;;;8.11;100.00;102314.81;10014793;29;20501;-67
2021/12/14 02:41:57;;;;;;;24.55;16.35;;;;;;;8.11;100.00;102314.81;10012443;28;20051;-68
2021/12/14 02:47:07;;;;;;;25.80;17.30;;;;;;;8.09;100.00;102300.63;10009853;28;20043;-69
2021/12/14 02:52:08;;;;;;;28.15;17.50;;;;;;;8.07;100.00;102302.78;10016297;29;20051;-69
2021/12/14 02:57:10;;;;;;;26.13;17.80;;;;;;;8.02;100.00;102308.19;10023083;29;20063;-69
2021/12/14 03:02:13;;;;;;;26.35;18.52;;;;;;;8.06;100.00;102319.41;10021909;29;20044;-68
2021/12/14 03:07:12;;;;;;;26.50;18.00;;;;;;;8.01;100.00;102309.28;10010197;28;20058;-72
2021/12/14 03:12:15;;;;;;;23.75;16.90;;;;;;;8.06;100.00;102316.69;10020927;29;20468;-71
2021/12/14 03:17:12;;;;;;;;;;;;;;;8.02;100.00;102316.38;10035545;28;20067;-70
2021/12/14 03:22:47;;;;;;;25.55;16.98;;;;;;;7.98;100.00;102304.34;10013760;28;20369;-70
2021/12/14 03:27:44;;;;;;;28.38;17.60;;;;;;;8.03;100.00;102293.50;9998386;29;20722;-70
2021/12/14 03:32:41;;;;;;;24.98;17.13;;;;;;;8.01;100.00;102298.41;10027571;29;20159;-70
2021/12/14 03:37:39;;;;;;;26.20;17.23;;;;;;;8.00;100.00;102302.19;10026165;29;20605;-70
2021/12/14 03:42:39;;;;;;;22.58;15.93;;;;;;;8.00;100.00;102307.63;10030892;29;20123;-67
2021/12/14 03:47:50;;;;;;;23.65;16.33;;;;;;;7.98;100.00;102320.69;10023690;29;20044;-68
2021/12/14 03:52:47;;;;;;;24.25;15.63;;;;;;;7.90;100.00;102307.56;10024375;29;20162;-67
2021/12/14 03:57:44;;;;;;;23.40;17.00;;;;;;;7.88;100.00;102304.28;10024414;29;20070;-68
2021/12/14 04:02:40;;;;;;;23.05;16.25;;;;;;;7.90;100.00;102310.28;10027727;29;20139;-68
2021/12/14 04:07:41;;;;;;;24.63;16.70;;;;;;;7.92;100.00;102321.75;10024850;29;20087;-68
2021/12/14 04:12:38;;;;;;;22.98;17.05;;;;;;;7.87;100.00;102316.28;10027977;28;20460;-68
2021/12/14 04:17:35;;;;;;;26.25;17.08;;;;;;;7.82;100.00;102297.16;10023702;29;20067;-71
2021/12/14 04:22:33;;;;;;;24.33;16.92;;;;;;;7.85;100.00;102299.38;10022857;28;20051;-71
2021/12/14 04:27:32;;;;;;;23.25;16.17;;;;;;;7.89;100.00;102303.19;10023753;28;20071;-68
2021/12/14 04:32:29;;;;;;;21.95;15.32;;;;;;;7.86;100.00;102295.56;10021422;29;20102;-72
2021/12/14 04:37:26;;;;;;;24.13;16.45;;;;;;;7.82;100.00;102278.09;10026462;29;20578;-70
2021/12/14 04:53:10;;;;;;;22.65;15.10;;;;;;;7.82;100.00;102289.81;10024851;28;20161;-71
2021/12/14 04:58:07;;;;;;;22.27;15.65;;;;;;;7.84;100.00;102281.38;10017469;29;20067;-70
2021/12/14 05:03:12;;;;;;;25.02;16.35;;;;;;;7.79;100.00;102273.97;10014604;29;20086;-70
2021/12/14 05:13:09;;;;;;;22.50;14.32;;;;;;;7.78;100.00;102281.34;10016027;28;20106;-73
2021/12/14 05:18:14;;;;;;;24.42;12.60;;;;;;;7.75;100.00;102279.16;10018545;29;20040;-73
2021/12/14 05:23:12;;;;;;;19.55;14.25;;;;;;;7.76;100.00;102274.50;9993091;29;20492;-71
2021/12/14 05:28:14;;;;;;;21.08;13.60;;;;;;;7.75;100.00;102273.69;10009539;29;20043;-71
2021/12/14 05:33:15;;;;;;;21.08;14.20;;;;;;;7.75;100.00;102262.81;10029021;28;20048;-70
2021/12/14 05:38:18;;;;;;;21.48;13.90;;;;;;;7.74;100.00;102271.22;10034603;28;20051;-69
2021/12/14 05:43:22;;;;;;;20.30;13.45;;;;;;;7.65;100.00;102273.59;10022275;29;20102;-70
2021/12/14 05:48:27;;;;;;;19.90;13.65;;;;;;;7.73;100.00;102270.41;10023384;29;20063;-70
2021/12/14 05:53:26;;;;;;;20.55;13.40;;;;;;;7.67;100.00;102259.75;10010627;29;20083;-70
2021/12/14 05:58:25;;;;;;;17.45;12.18;;;;;;;7.69;100.00;102257.59;10013632;29;20055;-71
2021/12/14 06:03:27;;;;;;;16.77;12.18;;;;;;;7.73;100.00;102245.91;10019071;29;20142;-71
2021/12/14 06:08:27;;;;;;;17.00;12.77;;;;;;;7.71;100.00;102248.06;10029085;29;20465;-70
2021/12/14 06:13:40;;;;;;;19.95;12.20;;;;;;;7.71;100.00;102261.69;10026780;28;20052;-70
2021/12/14 06:18:37;;;;;;;17.87;12.77;;;;;;;7.67;100.00;102271.44;10022398;29;20055;-71
2021/12/14 06:23:34;;;;;;;20.40;13.05;;;;;;;7.73;100.00;102270.41;10015980;29;20472;-70
2021/12/14 06:28:30;;;;;;;20.50;14.55;;;;;;;7.70;100.00;102267.38;10014928;28;20102;-70
2021/12/14 06:33:31;;;;;;;19.02;14.40;;;;;;;7.59;100.00;102274.66;10016337;28;20044;-70
2021/12/14 06:38:31;;;;;;;21.17;15.98;;;;;;;7.51;100.00;102283.28;10027101;29;20138;-71
2021/12/14 06:43:37;;;;;;;21.63;15.68;;;;;;;7.40;100.00;102281.53;10023875;29;20134;-71
2021/12/14 06:48:41;;;;;;;24.52;17.52;;;;;;;7.44;100.00;102285.41;10020383;28;20044;-70
2021/12/14 06:53:38;;;;;;;23.45;18.13;;;;;;;7.39;100.00;102286.19;10026256;29;20051;-69
2021/12/14 06:58:47;;;;;;;22.83;16.65;;;;;;;7.38;100.00;102296.25;10015719;29;20044;-68
2021/12/14 07:03:53;;;;;;;26.60;17.55;;;;;;;7.33;100.00;102292.63;10033159;29;20075;-71
2021/12/14 07:08:50;;;;;;;25.63;18.85;;;;;;;7.37;100.00;102293.78;10021064;28;20048;-71
2021/12/14 07:13:48;;;;;;;28.02;18.40;;;;;;;7.38;100.00;102288.09;10023045;29;20051;-75
2021/12/14 07:18:45;;;;;;;34.08;18.67;;;;;;;7.46;100.00;102288.69;10026087;29;20131;-73
2021/12/14 07:23:42;;;;;;;28.88;18.83;;;;;;;7.46;100.00;102291.41;10020458;29;20082;-73
2021/12/14 07:28:42;;;;;;;30.13;18.83;;;;;;;7.46;100.00;102307.75;10023258;29;20575;-74
2021/12/14 07:33:44;;;;;;;29.58;17.95;;;;;;;7.42;100.00;102306.59;10032120;29;20107;-73
2021/12/14 07:38:47;;;;;;;27.83;18.27;;;;;;;7.45;100.00;102300.63;10024934;29;20569;-71
2021/12/14 07:43:46;;;;;;;;;;;;;;;7.41;100.00;102321.31;10031406;28;20067;-74
2021/12/14 07:48:48;;;;;;;28.95;18.88;;;;;;;7.41;100.00;102326.75;10029081;29;20431;-73
2021/12/14 07:53:51;;;;;;;33.28;21.23;;;;;;;7.24;100.00;102338.56;10024637;28;20048;-72
2021/12/14 07:58:48;;;;;;;34.95;21.60;;;;;;;7.22;100.00;102348.88;10015015;29;20231;-74
2021/12/14 08:03:46;;;;;;;36.55;23.55;;;;;;;7.14;100.00;102352.03;10023574;29;20528;-74
2021/12/14 08:08:45;;;;;;;37.90;24.92;;;;;;;7.16;100.00;102358.03;10022296;29;20040;-72
2021/12/14 08:13:45;;;;;;;34.17;23.17;;;;;;;7.21;100.00;102360.00;10014167;29;20051;-70
2021/12/14 08:18:44;;;;;;;36.50;23.30;;;;;;;7.19;100.00;102364.84;10031409;29;20147;-73
2021/12/14 08:23:48;;;;;;;35.70;23.42;;;;;;;7.20;100.00;102364.63;10019370;29;20051;-73
2021/12/14 08:28:50;;;;;;;43.00;25.02;;;;;;;7.23;100.00;102360.56;10034695;29;20071;-72
2021/12/14 08:33:56;;;;;;;39.60;26.17;;;;;;;7.28;100.00;102345.09;10028784;29;20044;-73
2021/12/14 08:39:12;;;;;;;41.85;24.98;;;;;;;7.34;100.00;102338.66;10022741;29;20051;-72
2021/12/14 08:44:11;;;;;;;40.20;25.00;;;;;;;7.41;100.00;102343.06;10015192;29;20136;-74
2021/12/14 08:49:08;;;;;;;38.85;24.55;;;;;;;7.41;100.00;102343.06;10027869;29;20416;-73
2021/12/14 08:54:16;;;;;;;44.10;27.45;;;;;;;7.36;100.00;102341.94;10029245;28;20557;-73
2021/12/14 08:59:12;;;;;;;46.25;28.25;;;;;;;7.30;100.00;102350.28;10024344;29;20055;-74
2021/12/14 09:04:19;;;;;;;44.13;28.20;;;;;;;7.35;100.00;102355.78;10016502;29;20076;-74
2021/12/14 09:09:18;;;;;;;43.97;27.30;;;;;;;7.31;100.00;102369.09;10025365;28;20040;-72
2021/12/14 09:14:17;;;;;;;49.40;27.52;;;;;;;7.34;100.00;102352.25;10025678;28;20101;-70
2021/12/14 09:19:39;;;;;;;48.72;26.08;;;;;;;7.27;100.00;102365.25;10028512;29;20371;-73
2021/12/14 09:24:38;;;;;;;45.42;26.65;;;;;;;7.32;100.00;102356.31;10010737;29;20169;-73
2021/12/14 09:29:34;;;;;;;51.40;28.23;;;;;;;7.32;100.00;102354.41;10019184;28;20488;-70
2021/12/14 09:34:34;;;;;;;53.67;31.00;;;;;;;7.35;100.00;102361.22;10025257;28;20581;-72
2021/12/14 09:39:40;;;;;;;56.03;30.50;;;;;;;7.33;100.00;102369.66;10015155;28;20142;-70
2021/12/14 09:44:37;;;;;;;57.45;31.13;;;;;;;7.36;100.00;102369.16;10021372;28;20086;-73
2021/12/14 09:49:34;;;;;;;52.55;30.00;;;;;;;7.33;100.00;102375.09;10023095;29;20074;-72
2021/12/14 09:54:31;;;;;;;53.25;30.15;;;;;;;7.35;100.00;102377.56;10018203;29;20051;-73
2021/12/14 09:59:28;;;;;;;59.70;32.83;;;;;;;7.37;100.00;102392.53;10024074;29;20076;-72
2021/12/14 10:04:31;;;;;;;54.33;30.70;;;;;;;7.37;100.00;102398.00;10028559;29;20402;-73
2021/12/14 10:09:31;;;;;;;54.03;29.45;;;;;;;7.37;100.00;102392.53;10013161;29;20095;-73
2021/12/14 10:14:37;;;;;;;55.03;29.80;;;;;;;7.43;100.00;102396.16;10027640;28;20107;-72
2021/12/14 10:19:35;;;;;;;53.55;30.52;;;;;;;7.41;100.00;102390.16;10020071;29;20101;-74
2021/12/14 10:24:33;;;;;;;54.35;32.38;;;;;;;7.44;100.00;102396.97;10009885;29;20084;-73
2021/12/14 10:29:30;;;;;;;60.63;32.75;;;;;;;7.47;100.00;102397.31;10027521;29;20565;-72
2021/12/14 10:34:30;;;;;;;55.55;31.00;;;;;;;7.49;100.00;102395.13;10021397;29;20466;-73
2021/12/14 10:44:32;;;;;;;53.45;30.27;;;;;;;7.50;100.00;102382.34;10020591;29;20086;-73
2021/12/14 10:49:29;;;;;;;57.05;30.50;;;;;;;7.49;100.00;102394.31;10021051;29;20066;-73
2021/12/14 10:54:27;;;;;;;58.25;31.95;;;;;;;7.50;100.00;102379.63;10021248;29;20531;-72
2021/12/14 10:59:28;;;;;;;52.05;29.73;;;;;;;7.46;100.00;102389.38;10021323;29;20047;-74
2021/12/14 11:04:42;;;;;;;60.40;32.47;;;;;;;7.50;100.00;102382.34;10021638;28;20143;-73
2021/12/14 11:09:42;;;;;;;60.13;31.85;;;;;;;7.51;100.00;102386.72;10024201;29;20040;-72
2021/12/14 11:14:39;;;;;;;59.80;33.40;;;;;;;7.51;100.00;102398.41;10021267;28;20143;-70
2021/12/14 11:19:43;;;;;;;59.40;32.05;;;;;;;7.54;100.00;102408.81;10021365;29;20132;-71
2021/12/14 11:24:43;;;;;;;59.20;33.15;;;;;;;7.55;100.00;102398.75;10017993;28;20086;-73
2021/12/14 11:29:39;;;;;;;65.65;35.58;;;;;;;7.55;100.00;102398.75;10011807;29;20774;-74
2021/12/14 11:34:37;;;;;;;58.38;31.65;;;;;;;7.59;100.00;102394.44;10029585;28;20147;-74
2021/12/14 11:39:41;;;;;;;63.85;33.47;;;;;;;7.61;100.00;102407.78;10033065;28;20036;-74
2021/12/14 11:44:42;;;;;;;66.78;34.38;;;;;;;7.62;100.00;102415.69;9999097;29;20147;-73
2021/12/14 11:50:01;;;;;;;67.30;35.20;;;;;;;7.69;100.00;102434.53;10022173;29;20055;-72
2021/12/14 11:54:58;;;;;;;50.28;28.23;;;;;;;7.60;100.00;102431.44;10045201;29;20115;-72
2021/12/14 12:00:07;;;;;;;56.72;31.48;;;;;;;7.66;100.00;102433.16;10027184;29;20473;-73
2021/12/14 12:05:22;;;;;;;53.95;28.73;;;;;;;7.73;100.00;102431.06;10021433;29;20051;-72
2021/12/14 12:10:19;;;;;;;57.45;29.83;;;;;;;7.73;100.00;102439.22;10026496;28;20082;-73
2021/12/14 12:15:21;;;;;;;52.70;27.38;;;;;;;7.64;100.00;102435.31;10023677;29;20063;-73
2021/12/14 12:20:24;;;;;;;49.75;27.20;;;;;;;7.66;100.00;102415.97;10033140;29;20151;-74
2021/12/14 12:25:22;;;;;;;57.00;30.75;;;;;;;7.72;100.00;102413.06;10030869;29;20056;-71
2021/12/14 12:30:37;;;;;;;44.13;23.67;;;;;;;7.64;100.00;102421.69;10027169;29;20566;-72
2021/12/14 12:35:38;;;;;;;54.03;28.63;;;;;;;7.68;100.00;102420.13;10023504;29;20421;-73
2021/12/14 12:40:49;;;;;;;52.88;26.10;;;;;;;7.71;100.00;102419.59;10021107;29;20084;-72
2021/12/14 12:46:03;;;;;;;46.03;24.80;;;;;;;7.73;100.00;102422.06;10028713;29;20074;-73
2021/12/14 12:51:00;;;;;;;49.53;27.45;;;;;;;7.77;100.00;102415.84;10025819;28;20083;-72
2021/12/14 12:56:09;;;;;;;42.72;24.08;;;;;;;7.76;100.00;102416.91;10029786;28;20506;-72
2021/12/14 13:01:05;;;;;;;43.83;24.42;;;;;;;7.78;100.00;102431.09;10016543;28;20044;-73
2021/12/14 13:06:10;;;;;;;38.85;22.60;;;;;;;7.78;100.00;102428.38;10035274;28;20421;-71
2021/12/14 13:11:19;;;;;;;43.58;23.02;;;;;;;7.80;100.00;102439.84;10030320;29;20071;-72
2021/12/14 13:16:24;;;;;;;37.75;22.52;;;;;;;7.90;100.00;102438.28;10022403;29;20098;-72
2021/12/14 13:21:26;;;;;;;34.75;20.88;;;;;;;7.89;100.00;102436.63;10020543;28;20090;-71
2021/12/14 13:26:41;;;;;;;33.72;19.85;;;;;;;7.86;100.00;102445.34;10025252;28;20098;-73
2021/12/14 13:31:51;;;;;;;33.53;20.13;;;;;;;7.86;100.00;102448.88;10030921;29;20807;-71
2021/12/14 13:37:08;;;;;;;31.70;18.58;;;;;;;7.85;100.00;102449.16;10025014;29;20043;-73
2021/12/14 13:42:19;;;;;;;30.10;17.52;;;;;;;7.95;100.00;102449.22;10025800;29;20056;-73
2021/12/14 13:47:18;;;;;;;28.67;15.90;;;;;;;8.03;100.00;102432.44;10022521;28;20698;-72
2021/12/14 13:52:18;;;;;;;23.20;15.70;;;;;;;8.12;100.00;102452.69;10024198;29;20107;-72
2021/12/14 13:57:16;;;;;;;22.95;13.88;;;;;;;8.12;100.00;102444.50;10013242;28;20071;-73
2021/12/14 14:02:28;;;;;;;26.20;16.20;;;;;;;8.10;100.00;102443.09;10025014;29;20079;-72
2021/12/14 14:07:24;;;;;;;20.92;12.43;;;;;;;8.16;100.00;102448.34;10027707;29;20565;-72
2021/12/14 14:12:23;;;;;;;19.17;12.07;;;;;;;8.17;100.00;102449.19;10019394;28;20232;-70
2021/12/14 14:17:24;;;;;;;22.42;14.38;;;;;;;8.20;100.00;102457.63;10035469;28;20054;-71
2021/12/14 14:22:33;;;;;;;21.67;12.35;;;;;;;8.19;100.00;102452.44;10026685;29;20102;-71
2021/12/14 14:27:52;;;;;;;18.00;11.02;;;;;;;8.22;100.00;102452.75;10014148;29;20052;-73
2021/12/14 14:33:19;;;;;;;20.10;10.82;;;;;;;8.20;100.00;102449.47;10012537;28;20509;-73
2021/12/14 14:38:24;;;;;;;20.98;13.32;;;;;;;8.14;100.00;102450.50;10015201;28;20040;-73
2021/12/14 14:43:21;;;;;;;24.42;13.73;;;;;;;8.13;100.00;102459.75;10015893;28;20129;-72
2021/12/14 14:48:24;;;;;;;18.80;12.25;;;;;;;8.14;100.00;102447.75;10016668;29;20529;-72
2021/12/14 14:53:31;;;;;;;20.92;12.00;;;;;;;8.14;100.00;102460.56;10017251;29;20399;-73
2021/12/14 14:58:36;;;;;;;19.20;12.77;;;;;;;8.13;100.00;102458.94;10012096;29;20051;-72
2021/12/14 15:03:53;;;;;;;20.92;13.18;;;;;;;8.18;100.00;102473.41;10026362;28;20048;-73
2021/12/14 15:09:11;;;;;;;20.92;12.73;;;;;;;8.22;100.00;102463.66;10010588;28;20067;-73
2021/12/14 15:14:13;;;;;;;21.30;14.27;;;;;;;8.26;100.00;102452.22;10006631;29;20052;-68
2021/12/14 15:19:19;;;;;;;17.30;11.85;;;;;;;8.24;100.00;102460.69;10030041;29;20044;-70
2021/12/14 15:24:28;;;;;;;17.05;10.30;;;;;;;8.22;100.00;102463.66;10024814;28;20513;-71
2021/12/14 15:29:27;;;;;;;18.45;11.30;;;;;;;8.25;100.00;102467.75;10025499;28;20098;-71
2021/12/14 15:35:02;;;;;;;19.17;11.48;;;;;;;8.27;100.00;102475.69;10029548;28;20542;-71
2021/12/14 15:39:59;;;;;;;20.33;12.18;;;;;;;8.19;100.00;102488.72;10023441;29;20048;-75
2021/12/14 15:44:56;;;;;;;20.90;13.55;;;;;;;8.23;100.00;102503.44;10024998;28;21426;-71
2021/12/14 15:50:12;;;;;;;23.10;12.73;;;;;;;8.13;100.00;102497.91;10030445;28;20098;-71
2021/12/14 15:55:09;;;;;;;20.60;13.68;;;;;;;8.17;100.00;102492.78;10021198;28;20130;-72
2021/12/14 16:00:08;;;;;;;25.80;15.80;;;;;;;8.08;100.00;102486.97;10021555;29;20044;-71
2021/12/14 16:05:12;;;;;;;25.98;17.55;;;;;;;8.21;100.00;102481.09;10022195;29;20087;-74
2021/12/14 16:10:21;;;;;;;30.38;17.35;;;;;;;8.26;100.00;102479.47;10018887;29;20087;-71
2021/12/14 16:15:21;;;;;;;31.80;20.50;;;;;;;8.20;100.00;102482.16;10020311;29;20052;-72
2021/12/14 16:20:49;;;;;;;34.67;21.35;;;;;;;8.20;100.00;102487.63;10023280;28;20095;-72
2021/12/14 16:25:50;;;;;;;41.97;24.77;;;;;;;8.17;100.00;102493.59;10018182;28;20126;-72
2021/12/14 16:31:00;;;;;;;41.75;25.50;;;;;;;8.11;100.00;102493.78;10029061;28;20047;-72
2021/12/14 16:36:25;;;;;;;46.00;25.50;;;;;;;8.04;100.00;102499.44;10022880;28;20048;-72
2021/12/14 16:41:42;;;;;;;44.80;27.10;;;;;;;8.07;100.00;102504.38;10030330;28;20086;-72
2021/12/14 16:46:43;;;;;;;46.33;26.25;;;;;;;8.11;100.00;102504.69;10011283;29;20048;-72
2021/12/14 16:51:41;;;;;;;51.65;27.80;;;;;;;8.12;100.00;102493.53;10009908;29;20063;-69
2021/12/14 16:56:44;;;;;;;55.55;28.42;;;;;;;8.16;100.00;102502.81;10026190;28;20048;-69
2021/12/14 17:01:44;;;;;;;62.28;31.70;;;;;;;8.15;100.00;102506.66;10018561;29;20052;-70
2021/12/14 17:06:42;;;;;;;52.97;25.90;;;;;;;8.17;100.00;102509.94;10020220;29;20048;-70
2021/12/14 17:11:45;;;;;;;53.15;26.65;;;;;;;8.18;100.00;102522.47;10017986;29;20044;-69
2021/12/14 17:16:43;;;;;;;;;;;;;;;8.29;100.00;102523.41;10021667;29;20082;-69
2021/12/14 17:21:40;;;;;;;50.50;25.75;;;;;;;8.27;100.00;102525.56;10012484;29;20497;-69
2021/12/14 17:26:40;;;;;;;49.70;26.45;;;;;;;8.28;100.00;102529.09;10019473;28;20052;-69
2021/12/14 17:31:40;;;;;;;51.78;26.75;;;;;;;8.28;100.00;102527.19;10034390;28;20147;-70
2021/12/14 17:36:37;;;;;;;49.92;26.80;;;;;;;8.25;100.00;102518.72;10018220;28;20054;-71
2021/12/14 17:41:35;;;;;;;46.13;25.77;;;;;;;8.25;100.00;102516.81;10009520;28;20047;-70
2021/12/14 17:46:32;;;;;;;47.22;24.73;;;;;;;8.27;100.00;102519.28;10011475;29;20158;-69
2021/12/14 17:51:32;;;;;;;43.50;22.58;;;;;;;8.28;100.00;102526.38;10011661;29;20090;-69
2021/12/14 17:56:29;;;;;;;42.47;23.55;;;;;;;8.33;100.00;102529.13;10012522;29;20055;-70
2021/12/14 18:01:27;;;;;;;43.20;24.35;;;;;;;8.30;100.00;102535.13;10010766;29;20044;-71
2021/12/14 18:06:27;;;;;;;42.22;23.13;;;;;;;8.33;100.00;102532.72;10010590;29;20102;-69
2021/12/14 18:11:30;;;;;;;45.03;24.50;;;;;;;8.30;100.00;102540.56;10009079;28;20233;-72
2021/12/14 18:16:48;;;;;;;46.05;25.50;;;;;;;8.29;100.00;102544.38;10017471;28;20106;-71
2021/12/14 18:21:59;;;;;;;42.03;23.45;;;;;;;8.25;100.00;102543.25;10013370;29;19965;-72
2021/12/14 18:27:09;;;;;;;46.10;24.63;;;;;;;8.21;100.00;102549.22;10022195;28;20044;-72
2021/12/14 18:32:11;;;;;;;44.42;24.55;;;;;;;8.22;100.00;102553.59;10003257;29;20079;-71
2021/12/14 18:37:13;;;;;;;44.20;23.63;;;;;;;8.25;100.00;102554.97;10005216;29;20671;-72
2021/12/14 18:42:25;;;;;;;49.40;27.50;;;;;;;8.23;100.00;102557.94;10007153;29;20056;-71
2021/12/14 18:52:42;;;;;;;49.75;27.00;;;;;;;8.22;100.00;102561.75;10005741;29;20048;-72
2021/12/14 18:57:39;;;;;;;45.65;26.77;;;;;;;8.18;100.00;102571.50;10012344;28;20263;-70
2021/12/14 19:02:37;;;;;;;47.95;26.77;;;;;;;8.20;100.00;102558.47;10003339;29;20103;-71
2021/12/14 19:08:07;;;;;;;56.72;28.67;;;;;;;8.21;100.00;102548.38;10008642;28;20521;-70
2021/12/14 19:13:05;;;;;;;51.13;28.15;;;;;;;8.21;100.00;102546.50;10009696;29;20442;-71
2021/12/14 19:18:08;;;;;;;49.35;27.23;;;;;;;8.23;100.00;102555.22;10008862;29;20073;-70
2021/12/14 19:23:05;;;;;;;43.47;25.70;;;;;;;8.25;100.00;102554.16;10008176;29;20047;-73
2021/12/14 19:28:10;;;;;;;48.35;25.15;;;;;;;8.17;100.00;102572.59;10014047;29;20878;-71
2021/12/14 19:33:07;;;;;;;44.17;25.23;;;;;;;8.17;100.00;102569.88;10011454;29;20052;-71
2021/12/14 19:38:17;;;;;;;47.60;26.45;;;;;;;8.17;100.00;102580.78;10002669;29;20075;-72
2021/12/14 19:43:33;;;;;;;53.55;28.38;;;;;;;8.11;100.00;102587.25;10012423;29;20109;-71
2021/12/14 19:48:46;;;;;;;62.85;31.80;;;;;;;8.00;100.00;102574.59;10005465;29;20522;-71
2021/12/14 19:54:24;;;;;;;62.10;30.63;;;;;;;8.03;100.00;102590.44;10007911;28;20131;-72
2021/12/14 19:59:24;;;;;;;59.20;30.13;;;;;;;8.10;100.00;102590.22;10006384;29;20082;-70
2021/12/14 20:04:25;;;;;;;59.33;32.83;;;;;;;8.15;100.00;102577.50;10019695;29;20055;-70
2021/12/14 20:09:25;;;;;;;61.13;31.02;;;;;;;8.15;100.00;102572.03;10011130;29;20106;-71
2021/12/14 20:14:30;;;;;;;54.65;29.73;;;;;;;8.18;100.00;102579.69;10016160;29;20509;-72
2021/12/14 20:19:35;;;;;;;55.20;29.38;;;;;;;8.17;100.00;102575.34;10026432;28;20055;-71
2021/12/14 20:24:37;;;;;;;53.95;28.48;;;;;;;8.12;100.00;102577.16;10006579;29;20044;-71
2021/12/14 20:29:40;;;;;;;55.67;29.95;;;;;;;8.17;100.00;102569.88;10014220;29;20039;-69
2021/12/14 20:34:41;;;;;;;49.47;26.55;;;;;;;8.13;100.00;102568.75;10006071;29;20138;-69
2021/12/14 20:39:40;;;;;;;54.85;29.58;;;;;;;8.15;100.00;102572.03;10014523;29;20765;-68
2021/12/14 20:45:10;;;;;;;50.38;28.58;;;;;;;8.16;100.00;102573.66;10007087;29;20582;-70
2021/12/14 20:50:08;;;;;;;48.35;27.45;;;;;;;8.21;100.00;102565.56;10011074;29;20495;-69
2021/12/14 20:55:13;;;;;;;53.70;28.85;;;;;;;8.23;100.00;102563.38;10017275;28;20055;-70
2021/12/14 21:00:16;;;;;;;48.38;28.20;;;;;;;8.25;100.00;102551.44;10010533;29;20128;-68
2021/12/14 21:05:14;;;;;;;54.30;29.75;;;;;;;8.26;100.00;102550.34;10009084;29;20135;-68
2021/12/14 21:10:12;;;;;;;59.63;31.27;;;;;;;8.27;100.00;102552.00;10010287;28;20052;-74
2021/12/14 21:15:19;;;;;;;61.45;31.95;;;;;;;8.30;100.00;102551.47;10003783;29;20471;-72
2021/12/14 21:20:30;;;;;;;53.33;29.40;;;;;;;8.29;100.00;102555.28;10016387;28;20671;-71
2021/12/14 21:25:44;;;;;;;57.65;29.45;;;;;;;8.29;100.00;102563.47;10011449;29;20131;-71
2021/12/14 21:30:48;;;;;;;56.63;31.40;;;;;;;8.32;100.00;102565.66;10021667;29;20147;-71
2021/12/14 21:35:52;;;;;;;60.67;31.77;;;;;;;8.32;100.00;102571.13;10029654;28;20058;-72
2021/12/14 21:40:56;;;;;;;53.88;27.30;;;;;;;8.31;100.00;102564.00;10014657;28;20071;-72
2021/12/14 21:45:56;;;;;;;58.80;30.30;;;;;;;8.36;100.00;102567.63;10025055;28;20103;-71
2021/12/14 21:50:53;;;;;;;55.65;28.80;;;;;;;8.36;100.00;102561.34;10012486;29;20647;-71
2021/12/14 21:55:49;;;;;;;56.97;29.45;;;;;;;8.32;100.00;102565.66;10017727;29;20051;-70
2021/12/14 22:00:46;;;;;;;56.88;29.80;;;;;;;8.25;100.00;102570.50;10021703;29;20563;-71
2021/12/14 22:05:45;;;;;;;54.35;28.02;;;;;;;8.27;100.00;102568.34;10014183;29;20047;-71
2021/12/14 22:10:41;;;;;;;54.88;26.17;;;;;;;8.22;100.00;102569.94;10021538;28;20115;-71
2021/12/14 22:15:51;;;;;;;54.20;25.92;;;;;;;8.16;100.00;102570.94;10020083;29;20060;-73
2021/12/14 22:21:04;;;;;;;53.03;26.77;;;;;;;8.20;100.00;102574.81;10031415;28;20055;-73
2021/12/14 22:26:08;;;;;;;57.33;27.83;;;;;;;8.18;100.00;102581.59;10019805;28;20055;-72
2021/12/14 22:31:09;;;;;;;58.63;30.00;;;;;;;8.18;100.00;102581.59;10002830;29;20052;-74
2021/12/14 22:36:06;;;;;;;54.20;27.75;;;;;;;8.27;100.00;102584.69;10012980;29;20115;-72
2021/12/14 22:41:22;;;;;;;57.03;28.90;;;;;;;8.23;100.00;102579.75;10024985;28;20087;-71
2021/12/14 22:46:22;;;;;;;61.33;30.42;;;;;;;8.27;100.00;102568.34;10013930;29;20605;-71
2021/12/14 22:51:19;;;;;;;58.17;30.17;;;;;;;8.22;100.00;102583.56;10014509;29;20087;-72
2021/12/14 22:56:16;;;;;;;57.80;29.92;;;;;;;8.21;100.00;102587.38;10010529;29;20593;-72
2021/12/14 23:01:24;;;;;;;58.53;28.58;;;;;;;8.23;100.00;102582.47;10018082;28;20408;-72
2021/12/14 23:06:24;;;;;;;62.33;30.85;;;;;;;8.20;100.00;102580.25;10024398;29;20056;-72
2021/12/14 23:11:22;;;;;;;64.53;31.17;;;;;;;8.19;100.00;102573.19;10008399;29;20529;-72
2021/12/14 23:16:19;;;;;;;61.92;29.52;;;;;;;8.21;100.00;102565.56;10018225;29;20063;-73